Bookmark and Share
Track history (hours):
 

Hav Tind

Last reported at 2014-Apr-24 03:31 UTC. Time now 2014-Apr-24 03:49 UTC.
Position N 62°14' W 006°48'.

Length 60 m; draft 4 m.

Type: Cargo ship. MMSI: 231565000.

NotesDate/timePositionNaut miles runAvg speedWind from/ knotsBaromVisibWave heightAir tempDewpointWater temp
2014-Apr-24 03:31N 62°14' W 006°48'0 0.0
2014-Apr-24 02:31N 62°14' W 006°48'0 0.0
2014-Apr-24 01:28N 62°14' W 006°48'0 0.0
2014-Apr-24 00:31N 62°14' W 006°48'0 0.0
2014-Apr-23 23:31N 62°14' W 006°48'0 0.0
2014-Apr-23 22:31N 62°14' W 006°48'0 0.0
2014-Apr-23 21:31N 62°14' W 006°48'0 0.0
2014-Apr-23 20:31N 62°14' W 006°48'0 0.0
2014-Apr-23 19:31N 62°14' W 006°48'0 0.0
2014-Apr-23 18:28N 62°14' W 006°48'0 0.0
2014-Apr-23 17:31N 62°14' W 006°48'0 0.0
2014-Apr-23 16:31N 62°14' W 006°48'5 5.5
2014-Apr-23 15:33N 62°10' W 006°40'0 0.4
2014-Apr-23 14:33N 62°10' W 006°40'9 1.1
2014-Apr-23 06:07N 62°19' W 006°43'5 8.1
2014-Apr-23 05:28N 62°14' W 006°39'4 4.2
2014-Apr-23 04:31N 62°14' W 006°48'0 0.0
2014-Apr-23 03:31N 62°14' W 006°48'0 0.0
2014-Apr-23 02:31N 62°14' W 006°48'0 0.0
2014-Apr-23 01:31N 62°14' W 006°48'0 0.0
2014-Apr-23 00:31N 62°14' W 006°48'0 0.0
2014-Apr-22 23:28N 62°14' W 006°48'0 0.0
2014-Apr-22 22:31N 62°14' W 006°48'0 0.0
2014-Apr-22 21:31N 62°14' W 006°48'0 0.0
2014-Apr-22 20:28N 62°14' W 006°48'0 0.0
2014-Apr-22 19:31N 62°14' W 006°48'0 0.0
2014-Apr-22 18:28N 62°14' W 006°48'0 0.0
2014-Apr-22 17:31N 62°14' W 006°48'0 0.0
2014-Apr-22 16:31N 62°14' W 006°48'0 0.0
2014-Apr-22 15:31N 62°14' W 006°48'6 1.8
2014-Apr-22 12:17N 62°15' W 006°36'5 7.4
2014-Apr-22 11:33N 62°10' W 006°32'2 0.9
2014-Apr-22 09:22N 62°12' W 006°33'3 3.5
2014-Apr-22 08:31N 62°12' W 006°39'5 4.7
2014-Apr-22 07:31N 62°14' W 006°48'0 0.0
2014-Apr-22 06:31N 62°14' W 006°48'  
2014-Apr-16 12:29N 62°08' W 006°35'8 8.4
2014-Apr-16 11:33N 62°01' W 006°43'2 1.9
2014-Apr-16 10:31N 61°59' W 006°45'0 0.4
2014-Apr-16 09:34N 61°59' W 006°45'9 8.7
2014-Apr-16 08:33N 62°07' W 006°36'  

Dump ship's entire track history

sailing weather and tide predictions

Hav Tind — OZ2071 — position and weather